Latest Coastal Weather Observations for Cape Ferguson

IDQ60701

Issued at 8:15 pm EST Wednesday 23 April 2014 (issued every 10 minutes, with the page automatically refreshed every 10 minutes)

About coastal observations | Map of coastal stations | Coastal observations for QLD | Marine services | Other Formats
Station Details ID: 032182 Name: CAPE FERGUSON NTC AWS Lat: -19.28 Lon: 147.06 Height: 0.0 m
Data from the previous 72 hours. | See also: Recent months for locations in Queensland
Date/Time
EST
Temp

°C
Wind Pressure Rain
since 9am
mm
Weather Cloud Vis
km
Sea
Height
m
Swell
Dir
 
Speed
knots
Gust
knots
hPa Trend Height
m
Period
s
Dir
23/08:00pm 25.1 S 15 19 1013.8 - - - - - - - - -
23/07:30pm 25.5 S 16 19 1013.2 - - - - - - - - -
23/07:00pm 25.6 S 16 21 1012.8 - - - - - - - - -
23/06:30pm 25.6 SSE 12 16 1012.6 - - - - - - - - -
23/06:00pm 26.0 S 9 11 1011.9 - - - - - - - - -
23/05:30pm 26.3 SSW 9 11 1011.4 - - - - - - - - -
23/05:00pm 26.7 SSW 8 10 1011.3 - - - - - - - - -
23/04:30pm 26.9 S 7 8 1010.9 - - - - - - - - -
23/04:00pm 27.0 SSE 8 9 1010.9 - - - - - - - - -
23/03:30pm 26.9 SSE 6 8 1010.9 - - - - - - - - -
23/03:00pm 26.8 S 9 12 1011.2 - - - - - - - - -
23/02:30pm 26.8 SSE 9 11 1011.5 - - - - - - - - -
23/02:00pm 26.7 SSE 8 11 1011.8 - - - - - - - - -
23/01:30pm 26.5 S 9 11 1012.1 - - - - - - - - -
23/01:00pm 26.4 SSE 10 13 1012.6 - - - - - - - - -
23/12:30pm 26.4 SSE 11 13 1013.3 - - - - - - - - -
23/12:00pm 26.1 SSE 11 14 1013.7 - - - - - - - - -
23/11:30am 25.8 SSE 12 16 1014.2 - - - - - - - - -
23/11:00am 25.6 SSE 13 16 1014.5 - - - - - - - - -
23/10:30am 25.3 SSE 12 15 1014.8 - - - - - - - - -
23/10:00am 25.0 S 10 13 1015.0 - - - - - - - - -
23/09:30am 24.7 S 11 14 1015.0 - - - - - - - - -
23/09:00am 24.7 S 10 14 1014.9 - - - - - - - - -
23/08:30am 24.6 SSE 11 15 1014.7 - - - - - - - - -
23/08:00am 24.5 SSE 12 15 1014.4 - - - - - - - - -
23/07:30am 24.5 S 12 17 1014.3 - - - - - - - - -
23/07:00am 24.5 SSE 11 14 1014.0 - - - - - - - - -
23/06:30am 24.3 S 10 12 1013.9 - - - - - - - - -
23/06:00am 24.1 S 12 15 1013.5 - - - - - - - - -
23/05:30am 24.3 SSE 13 16 1013.0 - - - - - - - - -
23/05:00am 24.2 SSE 10 12 1013.3 - - - - - - - - -
23/04:30am 24.2 SSE 10 13 1013.3 - - - - - - - - -
23/04:00am 24.3 S 10 12 1013.4 - - - - - - - - -
23/03:30am 24.2 SSE 7 10 1013.5 - - - - - - - - -
23/03:00am 23.9 W 7 10 1013.7 - - - - - - - - -
23/02:30am 23.8 W 5 8 1013.8 - - - - - - - - -
23/02:00am 23.8 WSW 4 6 1014.1 - - - - - - - - -
23/01:30am 24.1 S 8 12 1014.5 - - - - - - - - -
23/01:00am 24.2 SSE 10 12 1014.7 - - - - - - - - -
23/12:30am 24.2 S 10 13 1015.0 - - - - - - - - -
23/12:00am 24.3 SSE 9 12 1015.3 - - - - - - - - -
 
Date/Time
EST
Temp

°C
Wind Pressure Rain
since 9am
mm
Weather Cloud Vis
km
Sea
Height
m
Swell
Dir
 
Speed
knots
Gust
knots
hPa Trend Height
m
Period
s
Dir
22/11:30pm 24.6 SSE 8 10 1015.5 - - - - - - - - -
22/11:00pm 24.6 S 6 7 1015.6 - - - - - - - - -
22/10:30pm 24.5 S 5 7 1015.6 - - - - - - - - -
22/10:00pm 24.8 SSE 8 9 1015.8 - - - - - - - - -
22/09:30pm 25.0 SE 8 10 1016.0 - - - - - - - - -
22/09:00pm 25.2 SE 10 13 1015.9 - - - - - - - - -
22/08:30pm 25.1 SE 10 12 1016.0 - - - - - - - - -
22/08:00pm 25.1 SE 10 12 1015.9 - - - - - - - - -
22/07:30pm 25.1 SE 9 12 1015.6 - - - - - - - - -
22/07:00pm 25.3 SE 9 11 1015.4 - - - - - - - - -
22/06:30pm 25.3 SSE 9 11 1015.2 - - - - - - - - -
22/06:00pm 25.5 SE 11 13 1015.3 - - - - - - - - -
22/05:30pm 25.6 SE 10 12 1015.1 - - - - - - - - -
22/05:00pm 25.6 ESE 11 13 1014.9 - - - - - - - - -
22/04:30pm 25.6 ESE 12 14 1014.7 - - - - - - - - -
22/04:00pm 25.5 ESE 12 14 1014.7 - - - - - - - - -
22/03:30pm 25.6 ESE 13 15 1014.5 - - - - - - - - -
22/03:00pm 25.7 ESE 12 14 1014.6 - - - - - - - - -
22/02:30pm 25.7 ESE 12 15 1014.9 - - - - - - - - -
22/02:00pm 25.7 ESE 11 15 1015.0 - - - - - - - - -
22/01:30pm 25.7 SE 12 14 1015.2 - - - - - - - - -
22/01:00pm 25.7 SE 11 13 1015.6 - - - - - - - - -
22/12:30pm 25.7 ESE 11 13 1015.9 - - - - - - - - -
22/12:00pm 25.6 ESE 11 14 1016.2 - - - - - - - - -
22/11:30am 25.6 SE 10 13 1016.5 - - - - - - - - -
22/11:00am 24.8 SSE 8 10 1016.8 - - - - - - - - -
22/10:30am 24.7 SSE 8 10 1017.2 - - - - - - - - -
22/10:00am 24.6 SSE 10 13 1017.4 - - - - - - - - -
22/09:30am 24.5 SSE 10 12 1017.6 - - - - - - - - -
22/09:00am 24.0 SSE 11 12 1017.5 - - - - - - - - -
22/08:30am 24.1 SSE 11 13 1017.4 - - - - - - - - -
22/08:00am 23.9 SSE 12 15 1017.2 - - - - - - - - -
22/07:30am 24.1 SSE 11 13 1017.0 - - - - - - - - -
22/07:00am 24.2 S 10 13 1016.7 - - - - - - - - -
22/06:30am 24.1 SSE 11 12 1016.4 - - - - - - - - -
22/06:00am 23.9 SSE 11 13 1016.0 - - - - - - - - -
22/05:30am 23.9 SSE 11 13 1015.7 - - - - - - - - -
22/05:00am 24.1 SSE 11 13 1015.5 - - - - - - - - -
22/04:30am 24.2 SSE 8 11 1015.5 - - - - - - - - -
22/04:00am 24.1 SSE 10 11 1015.4 - - - - - - - - -
22/03:30am 24.2 SSE 10 12 1015.5 - - - - - - - - -
22/03:00am 24.3 SSE 9 12 1015.7 - - - - - - - - -
22/02:30am 24.4 SSE 8 10 1015.8 - - - - - - - - -
22/02:00am 24.4 SSE 9 11 1016.1 - - - - - - - - -
22/01:30am 24.7 SSE 9 11 1016.2 - - - - - - - - -
22/01:00am 25.1 SSE 9 11 1016.6 - - - - - - - - -
22/12:30am 25.3 SE 10 15 1016.7 - - - - - - - - -
22/12:00am 25.4 SSE 10 12 1017.0 - - - - - - - - -
 
Date/Time
EST
Temp

°C
Wind Pressure Rain
since 9am
mm
Weather Cloud Vis
km
Sea
Height
m
Swell
Dir
 
Speed
knots
Gust
knots
hPa Trend Height
m
Period
s
Dir
21/11:30pm 26.2 ESE 15 18 1017.1 - - - - - - - - -
21/11:00pm 26.2 E 17 20 1017.3 - - - - - - - - -
21/10:30pm 26.3 ESE 16 20 1017.4 - - - - - - - - -
21/10:00pm 26.2 E 17 21 1017.4 - - - - - - - - -
21/09:30pm 26.3 E 17 21 1017.4 - - - - - - - - -
21/09:00pm 26.2 E 17 20 1017.3 - - - - - - - - -
21/08:30pm 26.3 E 16 19 1017.5 - - - - - - - - -
21/08:00pm 26.2 E 16 19 1017.3 - - - - - - - - -
21/07:30pm 26.3 E 15 19 1017.2 - - - - - - - - -
21/07:00pm 26.3 E 15 18 1016.7 - - - - - - - - -
21/06:30pm 26.3 E 16 18 1016.5 - - - - - - - - -
21/06:00pm 26.2 ESE 15 18 1016.3 - - - - - - - - -
21/05:30pm 26.3 E 15 18 1016.0 - - - - - - - - -
21/05:00pm 26.3 E 15 18 1015.8 - - - - - - - - -
21/04:30pm 26.3 E 16 19 1015.4 - - - - - - - - -
21/04:00pm 26.3 ESE 15 18 1015.2 - - - - - - - - -
21/03:30pm 26.2 ESE 16 19 1015.1 - - - - - - - - -
21/03:00pm 26.1 ESE 14 18 1014.8 - - - - - - - - -
21/02:30pm 26.2 E 14 17 1015.1 - - - - - - - - -
21/02:00pm 26.2 E 14 17 1015.3 - - - - - - - - -
21/01:30pm 26.1 E 15 17 1015.6 - - - - - - - - -
21/01:00pm 26.2 E 15 18 1015.8 - - - - - - - - -
21/12:30pm 26.0 E 15 18 1016.1 - - - - - - - - -
21/12:00pm 26.0 E 17 19 1016.3 - - - - - - - - -
21/11:30am 25.9 E 16 19 1016.7 - - - - - - - - -
21/11:00am 25.8 ESE 12 16 1017.0 - - - - - - - - -
21/10:30am 24.9 SE 8 11 1017.2 - - - - - - - - -
21/10:00am 24.2 SSE 11 13 1017.3 - - - - - - - - -
21/09:30am 23.9 SE 11 13 1017.2 - - - - - - - - -
21/09:00am 23.8 SE 12 14 1017.1 - - - - - - - - -
21/08:30am 23.6 SSE 11 13 1017.0 - - - - - - - - -
21/08:00am 23.7 SSE 11 13 1016.7 - - - - - - - - -
21/07:30am 23.7 SSE 11 14 1016.6 - - - - - - - - -
21/07:00am 23.8 SSE 10 13 1016.4 - - - - - - - - -
21/06:30am 23.6 S 10 12 1016.1 - - - - - - - - -
21/06:00am 23.8 SSE 11 13 1015.8 - - - - - - - - -
21/05:30am 23.9 SSE 10 13 1015.5 - - - - - - - - -
21/05:00am 23.9 S 10 12 1015.3 - - - - - - - - -
21/04:30am 24.0 SSE 9 14 1015.2 - - - - - - - - -
21/04:00am 24.2 SSE 9 14 1015.2 - - - - - - - - -
21/03:30am 24.2 S 8 11 1015.1 - - - - - - - - -
21/03:00am 24.3 S 8 11 1015.0 - - - - - - - - -
21/02:30am 23.5 WNW 4 7 1015.0 - - - - - - - - -
21/02:00am 24.4 S 11 15 1014.9 - - - - - - - - -
21/01:30am 24.5 S 9 12 1015.1 - - - - - - - - -
21/01:00am 24.4 S 9 11 1015.4 - - - - - - - - -
21/12:30am 24.9 SE 12 16 1015.7 - - - - - - - - -
21/12:00am 26.1 ESE 17 20 1016.3 - - - - - - - - -
 
Date/Time
EST
Temp

°C
Wind Pressure Rain
since 9am
mm
Weather Cloud Vis
km
Sea
Height
m
Swell
Dir
 
Speed
knots
Gust
knots
hPa Trend Height
m
Period
s
Dir
20/11:30pm 26.1 ESE 17 21 1016.5 - - - - - - - - -
20/11:00pm 26.2 ESE 17 21 1016.6 - - - - - - - - -
20/10:30pm 26.2 ESE 16 19 1016.6 - - - - - - - - -
20/10:00pm 26.3 E 16 20 1016.7 - - - - - - - - -
20/09:30pm 26.4 E 15 18 1016.9 - - - - - - - - -
20/09:00pm 26.4 E 15 17 1016.8 - - - - - - - - -
20/08:30pm 26.4 E 14 17 1016.6 - - - - - - - - -

Other Formats:

Comma delimited format used in spreadsheet applications
http://www.bom.gov.au/fwo/IDQ60701/IDQ60701.94297.axf

JavaScript Object Notation format (JSON) in row-major order
http://www.bom.gov.au/fwo/IDQ60701/IDQ60701.94297.json